Decoded Metar for KNOZ ( in ) (IATA:) | Meteo·Mobile Aviation Weather
aviador You're here:

KNOZ Decoded Metar

in
Report Time2018-12-17 12:59:00
UTC Time2018-12-17 14:01:09
Flight Rules vfr VFR
Wind100° at 05 kt
W.Rank100° ranks 27
Current wind is below 100° avg. (5.2)
Visibility9999 m
Phenomena:N/A
Clouds:N/A
Expected CloudBase > 3,200 ft AGL from Temp-Dew spread
CeilingNone
Temp07°C
Dew Point-1°C (57% RH)
AAT3.1°C
QNH1020 hPa
Raw Report
KNOZ 171259Z AUTO 10005KT 10SM CLR 07/M01 A3011 RMK AO2 SLP146
T00721011=

Extra information for KNOZ:More info

Social comments